Time;durP1;ratioP1;P1;durP2;ratioP2;P2;SDS_P1;SDS_P2;PMS_P1;PMS_P2;Temp;Humidity;BMP_temperature;BMP_pressure;BME280_temperature;BME280_humidity;BME280_pressure;Samples;Min_cycle;Max_cycle;Signal;HPM_P1;HPM_P2
2023/08/25 00:01:20;;;;;;;6.63;6.10;;;21.00;99.90;;;;;;5050814;28;20245;-77
2023/08/25 00:03:47;;;;;;;6.97;6.47;;;21.00;99.90;;;;;;5045540;28;20409;-77
2023/08/25 00:06:14;;;;;;;6.77;6.20;;;21.00;99.90;;;;;;5045657;28;20191;-77
2023/08/25 00:08:41;;;;;;;7.27;6.67;;;21.00;99.90;;;;;;5045514;28;20228;-77
2023/08/25 00:11:09;;;;;;;6.30;5.80;;;21.00;99.90;;;;;;5049622;28;20726;-77
2023/08/25 00:13:36;;;;;;;7.10;6.50;;;21.10;99.90;;;;;;5049349;28;20199;-77
2023/08/25 00:16:04;;;;;;;6.53;6.03;;;21.10;99.90;;;;;;5050985;28;20269;-77
2023/08/25 00:18:32;;;;;;;6.30;5.90;;;21.10;99.90;;;;;;5046567;28;20690;-77
2023/08/25 00:20:58;;;;;;;6.40;5.90;;;21.10;99.90;;;;;;5048429;28;20188;-77
2023/08/25 00:23:25;;;;;;;6.13;5.60;;;21.00;99.90;;;;;;5048518;28;20270;-77
2023/08/25 00:25:53;;;;;;;5.13;4.83;;;21.00;99.90;;;;;;5043594;28;20204;-78
2023/08/25 00:28:23;;;;;;;5.47;4.97;;;20.90;99.90;;;;;;5048740;28;20211;-78
2023/08/25 00:30:50;;;;;;;5.70;5.20;;;20.90;99.90;;;;;;5050022;28;20211;-77
2023/08/25 00:33:17;;;;;;;5.37;5.03;;;20.80;99.90;;;;;;5041657;28;20286;-78
2023/08/25 00:35:44;;;;;;;5.63;5.23;;;20.80;99.90;;;;;;5048914;28;20580;-77
2023/08/25 00:38:13;;;;;;;6.03;5.63;;;20.80;99.90;;;;;;5046253;28;20319;-77
2023/08/25 00:40:40;;;;;;;5.97;5.57;;;20.70;99.90;;;;;;5045503;28;20228;-77
2023/08/25 00:43:07;;;;;;;6.07;5.67;;;20.70;99.90;;;;;;5052760;28;20819;-76
2023/08/25 00:45:39;;;;;;;7.13;6.63;;;20.60;99.90;;;;;;5046235;28;20228;-77
2023/08/25 00:48:07;;;;;;;7.97;7.37;;;20.50;99.90;;;;;;5049532;28;20215;-78
2023/08/25 00:50:35;;;;;;;7.80;7.10;;;20.50;99.90;;;;;;5048360;28;20203;-78
2023/08/25 00:53:03;;;;;;;8.30;7.70;;;20.40;99.90;;;;;;5044455;28;20218;-77
2023/08/25 00:55:30;;;;;;;7.67;7.17;;;20.40;99.90;;;;;;5038725;28;20207;-78
2023/08/25 00:57:58;;;;;;;8.87;8.30;;;20.40;99.90;;;;;;5046079;28;20296;-77
2023/08/25 01:00:25;;;;;;;8.43;7.90;;;20.30;99.90;;;;;;5044781;28;20257;-77
2023/08/25 01:02:55;;;;;;;8.20;7.40;;;20.30;99.90;;;;;;5044075;28;20581;-76
2023/08/25 01:05:22;;;;;;;8.13;7.57;;;20.30;99.90;;;;;;5048898;28;20551;-77
2023/08/25 01:07:49;;;;;;;6.93;6.43;;;20.30;99.90;;;;;;5049293;28;20237;-76
2023/08/25 01:10:17;;;;;;;7.30;6.80;;;20.30;99.90;;;;;;5045506;28;20207;-78
2023/08/25 01:12:53;;;;;;;7.00;6.50;;;20.30;99.90;;;;;;5040042;28;20286;-77
2023/08/25 01:15:28;;;;;;;7.83;7.33;;;20.30;99.90;;;;;;5041047;28;20199;-77
2023/08/25 01:18:03;;;;;;;8.37;7.77;;;20.30;99.90;;;;;;5048945;28;20219;-77
2023/08/25 01:20:31;;;;;;;9.23;8.67;;;20.30;99.90;;;;;;5044276;28;20202;-77
2023/08/25 01:23:15;;;;;;;7.77;7.27;;;20.30;99.90;;;;;;5042839;28;20666;-77
2023/08/25 01:25:44;;;;;;;10.10;9.40;;;20.30;99.90;;;;;;5053959;28;20205;-77
2023/08/25 01:28:11;;;;;;;8.47;7.97;;;20.30;99.90;;;;;;5047749;28;20289;-77
2023/08/25 01:30:38;;;;;;;7.23;6.63;;;20.30;99.90;;;;;;5040723;28;20207;-78
2023/08/25 01:33:06;;;;;;;9.97;9.33;;;20.30;99.90;;;;;;5048700;28;20212;-77
2023/08/25 01:35:45;;;;;;;10.60;9.90;;;20.30;99.90;;;;;;5046728;28;20739;-77
2023/08/25 01:38:17;;;;;;;8.10;7.60;;;20.20;99.90;;;;;;5044965;28;20222;-78
2023/08/25 01:40:51;;;;;;;8.80;8.30;;;20.20;99.90;;;;;;5043885;28;20214;-77
2023/08/25 01:43:22;;;;;;;8.13;7.53;;;20.20;99.90;;;;;;5039806;28;20225;-77
2023/08/25 01:45:51;;;;;;;8.30;7.70;;;20.10;99.90;;;;;;5043695;28;20614;-78
2023/08/25 01:48:19;;;;;;;7.90;7.30;;;20.20;99.90;;;;;;5048470;28;20224;-77
2023/08/25 01:50:46;;;;;;;8.40;7.70;;;20.20;99.90;;;;;;5051877;28;20211;-77
2023/08/25 01:53:14;;;;;;;8.40;7.70;;;20.20;99.90;;;;;;5043328;28;20512;-77
2023/08/25 01:55:40;;;;;;;8.40;7.80;;;20.10;99.90;;;;;;5043586;28;20199;-77
2023/08/25 01:58:10;;;;;;;8.10;7.60;;;20.10;99.90;;;;;;5046583;28;20238;-78
2023/08/25 02:00:37;;;;;;;8.97;8.17;;;20.10;99.90;;;;;;5043370;28;20203;-77
2023/08/25 02:03:04;;;;;;;8.83;8.23;;;20.10;99.90;;;;;;5044996;28;20627;-77
2023/08/25 02:05:30;;;;;;;9.00;8.30;;;20.20;99.90;;;;;;5045916;28;20210;-77
2023/08/25 02:07:57;;;;;;;8.83;8.23;;;20.20;99.90;;;;;;5047936;28;20839;-77
2023/08/25 02:10:24;;;;;;;8.20;7.70;;;20.20;99.90;;;;;;5043556;28;20203;-77
2023/08/25 02:12:51;;;;;;;8.90;8.30;;;20.20;99.90;;;;;;5044068;28;20241;-77
2023/08/25 02:15:19;;;;;;;8.40;7.80;;;20.20;99.90;;;;;;5042786;28;20215;-76
2023/08/25 02:17:46;;;;;;;8.20;7.70;;;20.30;99.90;;;;;;5043985;28;20269;-76
2023/08/25 02:20:13;;;;;;;8.10;7.60;;;20.30;99.90;;;;;;5042884;28;20199;-77
2023/08/25 02:22:40;;;;;;;8.10;7.60;;;20.40;99.90;;;;;;5044372;28;20219;-77
2023/08/25 02:25:08;;;;;;;8.50;7.70;;;20.40;99.90;;;;;;5046756;28;20665;-77
2023/08/25 02:27:35;;;;;;;8.30;7.70;;;20.50;99.90;;;;;;5044940;28;20662;-77
2023/08/25 02:30:03;;;;;;;9.50;7.97;;;20.50;99.90;;;;;;5057257;28;20211;-77
2023/08/25 02:32:31;;;;;;;8.93;8.30;;;20.50;99.90;;;;;;5041147;28;20555;-77
2023/08/25 02:34:57;;;;;;;8.50;7.90;;;20.50;99.90;;;;;;5048172;28;20206;-77
2023/08/25 02:37:25;;;;;;;10.83;8.10;;;20.50;99.90;;;;;;5042511;28;20226;-77
2023/08/25 02:39:51;;;;;;;8.23;7.63;;;20.60;99.90;;;;;;5042952;28;20251;-77
2023/08/25 02:42:20;;;;;;;11.47;10.57;;;20.60;99.90;;;;;;5044235;28;20200;-81
2023/08/25 02:44:47;;;;;;;8.23;7.63;;;20.60;99.90;;;;;;5046473;28;20191;-77
2023/08/25 02:47:15;;;;;;;8.40;7.80;;;20.70;99.90;;;;;;5042598;28;20674;-77
2023/08/25 02:49:43;;;;;;;8.93;8.23;;;20.70;99.90;;;;;;5042916;28;20223;-78
2023/08/25 02:52:10;;;;;;;8.27;7.57;;;20.70;99.90;;;;;;5051256;28;20666;-79
2023/08/25 02:54:37;;;;;;;8.70;7.97;;;20.80;99.90;;;;;;5045433;28;20249;-81
2023/08/25 02:57:04;;;;;;;9.30;8.60;;;20.80;99.90;;;;;;5045863;28;20208;-79
2023/08/25 02:59:32;;;;;;;5.20;3.40;;;20.80;99.90;;;;;;5048802;28;20219;-77
2023/08/25 03:01:59;;;;;;;6.10;5.60;;;20.80;99.90;;;;;;5046681;28;20203;-79
2023/08/25 03:04:25;;;;;;;4.67;3.57;;;20.80;99.90;;;;;;5050950;28;20217;-78
2023/08/25 03:06:54;;;;;;;3.53;3.13;;;20.80;99.90;;;;;;5053930;28;20202;-78
2023/08/25 03:09:21;;;;;;;7.70;6.90;;;20.80;99.90;;;;;;5051392;28;20211;-78
2023/08/25 03:11:48;;;;;;;6.30;3.90;;;20.80;99.90;;;;;;5033737;28;20196;-79
2023/08/25 03:14:15;;;;;;;5.40;3.47;;;20.80;99.90;;;;;;5054197;28;20214;-78
2023/08/25 03:16:42;;;;;;;3.90;3.50;;;20.80;99.90;;;;;;5049451;28;20284;-76
2023/08/25 03:19:08;;;;;;;6.93;6.43;;;20.70;99.90;;;;;;5041831;28;20212;-77
2023/08/25 03:21:35;;;;;;;7.63;7.07;;;20.60;99.90;;;;;;5050637;28;20195;-76
2023/08/25 03:24:04;;;;;;;8.80;8.10;;;20.50;99.90;;;;;;5042141;28;20202;-77
2023/08/25 03:26:31;;;;;;;7.20;6.50;;;20.50;99.90;;;;;;5040333;28;20222;-78
2023/08/25 03:28:58;;;;;;;9.67;8.97;;;20.40;99.90;;;;;;5047642;28;20223;-76
2023/08/25 03:31:25;;;;;;;9.17;8.47;;;20.30;99.90;;;;;;5045529;28;20244;-77
2023/08/25 03:33:52;;;;;;;9.77;9.17;;;20.30;99.90;;;;;;5039236;28;20199;-78
2023/08/25 03:36:19;;;;;;;5.60;4.93;;;20.30;99.90;;;;;;5048644;28;20595;-79
2023/08/25 03:38:45;;;;;;;5.60;5.10;;;20.20;99.90;;;;;;5047231;28;20211;-78
2023/08/25 03:41:15;;;;;;;4.27;3.87;;;20.20;99.90;;;;;;5043434;28;20321;-78
2023/08/25 03:43:45;;;;;;;5.63;4.20;;;20.30;99.90;;;;;;5039063;28;20223;-78
2023/08/25 03:46:12;;;;;;;6.50;3.90;;;20.30;99.90;;;;;;5040106;28;20203;-78
2023/08/25 03:48:39;;;;;;;5.83;4.10;;;20.40;99.90;;;;;;5043042;28;20216;-77
2023/08/25 03:51:06;;;;;;;6.73;5.67;;;20.50;99.90;;;;;;5046585;28;20187;-77
2023/08/25 03:53:33;;;;;;;5.57;4.57;;;20.60;99.90;;;;;;5041939;28;20200;-78
2023/08/25 03:55:59;;;;;;;6.87;5.83;;;20.70;99.90;;;;;;5044063;28;20203;-76
2023/08/25 03:58:28;;;;;;;5.57;4.77;;;20.70;99.90;;;;;;5037358;28;20721;-77
2023/08/25 04:00:55;;;;;;;5.47;4.87;;;20.70;99.90;;;;;;5040228;28;20286;-77
2023/08/25 04:03:22;;;;;;;7.00;6.33;;;20.80;99.90;;;;;;5039434;28;20200;-79
2023/08/25 04:05:49;;;;;;;4.67;3.53;;;20.70;99.90;;;;;;5047096;28;20282;-79
2023/08/25 04:08:15;;;;;;;4.40;3.50;;;20.80;99.90;;;;;;5034844;28;20327;-80
2023/08/25 04:10:43;;;;;;;4.97;3.60;;;20.80;99.90;;;;;;5045093;28;20301;-78
2023/08/25 04:13:11;;;;;;;7.43;5.63;;;20.70;99.90;;;;;;5050262;28;20242;-79
2023/08/25 04:15:39;;;;;;;5.27;4.77;;;20.70;99.90;;;;;;5036577;28;20202;-78
2023/08/25 04:18:07;;;;;;;5.07;4.57;;;20.70;99.90;;;;;;5039377;28;20224;-79
2023/08/25 04:20:37;;;;;;;4.17;3.77;;;20.60;99.90;;;;;;5039852;28;20188;-79
2023/08/25 04:23:08;;;;;;;4.90;3.93;;;20.60;99.90;;;;;;5050622;28;20420;-78
2023/08/25 04:25:35;;;;;;;4.03;3.63;;;20.60;99.90;;;;;;5047036;28;20515;-82
2023/08/25 04:28:02;;;;;;;3.97;3.67;;;20.60;99.90;;;;;;5041025;28;20211;-82
2023/08/25 04:30:30;;;;;;;4.87;3.90;;;20.60;99.90;;;;;;5048834;28;20195;-77
2023/08/25 04:33:02;;;;;;;4.50;4.10;;;20.60;99.90;;;;;;5048057;28;20612;-77
2023/08/25 04:35:31;;;;;;;6.63;3.60;;;20.70;99.90;;;;;;5045174;28;20743;-77
2023/08/25 04:37:59;;;;;;;5.30;4.90;;;20.70;99.90;;;;;;5044188;28;20231;-77
2023/08/25 04:40:26;;;;;;;6.30;4.43;;;20.70;99.90;;;;;;5042057;28;20202;-76
2023/08/25 04:42:54;;;;;;;7.43;4.53;;;20.70;99.90;;;;;;5051589;28;20280;-77
2023/08/25 04:45:21;;;;;;;5.00;4.53;;;20.80;99.90;;;;;;5047149;28;20211;-77
2023/08/25 04:47:48;;;;;;;4.23;3.50;;;20.80;99.90;;;;;;5038230;28;20208;-77
2023/08/25 04:50:16;;;;;;;4.90;4.50;;;20.90;99.90;;;;;;5041311;28;20218;-81
2023/08/25 04:52:58;;;;;;;4.10;3.37;;;20.80;99.90;;;;;;5043718;28;20783;-82
2023/08/25 04:55:25;;;;;;;4.40;3.57;;;20.90;99.90;;;;;;5048917;28;20610;-79
2023/08/25 04:57:52;;;;;;;3.93;3.20;;;20.90;99.90;;;;;;5046796;28;20211;-79
2023/08/25 05:00:20;;;;;;;3.70;3.23;;;20.90;99.90;;;;;;5048487;28;20249;-79
2023/08/25 05:02:49;;;;;;;6.40;3.90;;;20.90;99.90;;;;;;5043063;28;20199;-78
2023/08/25 05:05:20;;;;;;;4.57;3.58;;;20.90;99.90;;;;;;5046701;28;20805;-77
2023/08/25 05:07:47;;;;;;;4.07;3.67;;;21.00;99.90;;;;;;5046421;28;20306;-77
2023/08/25 05:10:14;;;;;;;4.70;4.05;;;21.10;99.90;;;;;;5046813;28;20448;-78
2023/08/25 05:12:51;;;;;;;3.80;3.40;;;21.10;99.90;;;;;;5049263;28;20276;-81
2023/08/25 05:15:18;;;;;;;4.83;3.67;;;21.10;99.90;;;;;;5053858;28;20203;-79
2023/08/25 05:17:46;;;;;;;5.23;3.37;;;21.20;99.90;;;;;;5053051;28;20224;-78
2023/08/25 05:20:13;;;;;;;3.73;3.33;;;21.20;99.90;;;;;;5042765;28;20287;-79
2023/08/25 05:22:41;;;;;;;3.73;3.43;;;21.30;99.90;;;;;;5042531;28;20199;-79
2023/08/25 05:25:09;;;;;;;3.73;3.37;;;21.40;99.90;;;;;;5041373;28;20686;-77
2023/08/25 05:27:37;;;;;;;5.53;3.60;;;21.60;99.90;;;;;;5055993;28;20195;-76
2023/08/25 05:30:05;;;;;;;6.77;4.00;;;21.70;99.90;;;;;;5056151;28;20582;-79
2023/08/25 05:32:34;;;;;;;4.70;3.40;;;21.90;99.90;;;;;;5044477;28;20200;-79
2023/08/25 05:35:21;;;;;;;5.83;4.20;;;22.00;99.90;;;;;;5024503;28;20207;-80
2023/08/25 05:37:51;;;;;;;5.50;5.00;;;22.30;99.90;;;;;;5041518;28;20228;-80
2023/08/25 05:40:18;;;;;;;5.40;4.60;;;22.50;99.90;;;;;;5040434;28;20584;-79
2023/08/25 05:42:46;;;;;;;8.53;7.40;;;22.70;99.90;;;;;;5053597;28;20226;-78
2023/08/25 05:45:13;;;;;;;7.68;6.97;;;22.90;99.90;;;;;;5037658;28;20437;-77
2023/08/25 05:47:39;;;;;;;7.00;6.40;;;23.10;99.90;;;;;;5043961;28;20282;-76
2023/08/25 05:50:07;;;;;;;6.20;5.70;;;23.20;99.90;;;;;;5037767;28;20444;-76
2023/08/25 05:52:34;;;;;;;6.27;5.70;;;23.30;99.90;;;;;;5037678;28;20679;-76
2023/08/25 05:55:02;;;;;;;7.30;6.60;;;23.40;99.90;;;;;;5037985;28;20206;-75
2023/08/25 05:57:29;;;;;;;7.93;7.33;;;23.50;99.90;;;;;;5040906;28;20227;-76
2023/08/25 05:59:56;;;;;;;8.50;7.80;;;23.60;99.90;;;;;;5047427;28;20277;-76
2023/08/25 06:02:23;;;;;;;8.07;7.37;;;23.60;99.90;;;;;;5038950;28;20192;-76
2023/08/25 06:04:49;;;;;;;7.70;7.10;;;23.60;99.90;;;;;;5044726;28;20195;-77
2023/08/25 06:07:16;;;;;;;8.43;7.70;;;23.70;99.90;;;;;;5051734;28;20207;-78
2023/08/25 06:09:43;;;;;;;8.40;7.70;;;23.70;99.90;;;;;;5042783;28;20212;-76
2023/08/25 06:12:12;;;;;;;8.57;7.67;;;23.60;99.90;;;;;;5042533;28;20211;-77
2023/08/25 06:14:39;;;;;;;5.57;3.47;;;23.60;99.90;;;;;;5052254;28;20203;-77
2023/08/25 06:17:07;;;;;;;5.40;3.53;;;23.60;99.90;;;;;;5044498;28;20267;-77
2023/08/25 06:19:36;;;;;;;7.93;7.03;;;23.60;99.90;;;;;;5044284;28;20219;-78
2023/08/25 06:22:03;;;;;;;7.53;6.83;;;23.60;99.90;;;;;;5042071;28;20250;-76
2023/08/25 06:24:29;;;;;;;8.13;7.33;;;23.60;99.90;;;;;;5050546;28;20260;-77
2023/08/25 06:26:56;;;;;;;8.07;6.70;;;23.50;99.90;;;;;;5053762;28;20212;-77
2023/08/25 06:29:24;;;;;;;6.40;5.90;;;23.40;99.90;;;;;;5046260;28;20216;-77
2023/08/25 06:31:51;;;;;;;7.37;6.13;;;23.10;99.90;;;;;;5039515;28;20206;-77
2023/08/25 06:34:18;;;;;;;7.37;6.63;;;22.70;99.90;;;;;;5044853;28;20215;-78
2023/08/25 06:36:45;;;;;;;8.23;7.43;;;22.40;99.90;;;;;;5038991;28;20219;-76
2023/08/25 06:39:12;;;;;;;6.90;6.30;;;22.10;99.90;;;;;;5050486;28;20223;-76
2023/08/25 06:41:38;;;;;;;8.87;8.17;;;22.00;99.90;;;;;;5042958;28;20753;-77
2023/08/25 06:44:09;;;;;;;8.77;8.17;;;21.90;99.90;;;;;;5038472;28;20199;-78
2023/08/25 06:46:37;;;;;;;5.33;4.93;;;22.00;99.90;;;;;;5041199;28;20191;-80
2023/08/25 06:49:04;;;;;;;5.40;3.77;;;22.00;99.90;;;;;;5040084;28;20353;-80
2023/08/25 06:51:30;;;;;;;4.10;3.63;;;22.00;99.90;;;;;;5047408;28;20198;-81
2023/08/25 06:54:01;;;;;;;4.17;3.30;;;22.00;99.90;;;;;;5042479;28;20577;-80
2023/08/25 06:56:28;;;;;;;5.43;3.60;;;22.20;99.90;;;;;;5052695;28;20199;-79
2023/08/25 06:58:54;;;;;;;4.03;3.63;;;22.30;99.90;;;;;;5046531;28;20222;-80
2023/08/25 07:01:24;;;;;;;4.57;3.67;;;22.40;99.90;;;;;;5046132;28;20195;-82
2023/08/25 07:03:54;;;;;;;7.90;7.40;;;22.50;99.90;;;;;;5050345;28;20191;-79
2023/08/25 07:06:21;;;;;;;6.50;4.37;;;22.60;99.90;;;;;;5044120;28;20192;-80
2023/08/25 07:08:51;;;;;;;4.03;3.40;;;22.60;99.90;;;;;;5048651;28;20254;-82
2023/08/25 07:11:18;;;;;;;8.20;7.50;;;22.70;99.90;;;;;;5045264;28;20233;-80
2023/08/25 07:13:45;;;;;;;9.53;8.43;;;22.80;99.90;;;;;;5042888;28;20202;-81
2023/08/25 07:16:12;;;;;;;7.87;7.23;;;23.10;99.90;;;;;;5053538;28;20198;-81
2023/08/25 07:18:39;;;;;;;7.83;7.23;;;23.20;99.90;;;;;;5042231;28;20226;-80
2023/08/25 07:21:07;;;;;;;4.73;3.63;;;23.30;99.90;;;;;;5043731;28;20200;-83
2023/08/25 07:23:35;;;;;;;7.57;6.87;;;23.30;99.90;;;;;;5043866;28;20202;-83
2023/08/25 07:26:01;;;;;;;7.53;6.93;;;23.20;99.90;;;;;;5042573;28;20195;-81
2023/08/25 07:28:28;;;;;;;8.50;7.80;;;23.10;99.90;;;;;;5046037;28;20224;-81
2023/08/25 07:30:56;;;;;;;8.80;8.10;;;23.00;99.90;;;;;;5040694;28;20701;-81
2023/08/25 07:33:23;;;;;;;7.83;7.20;;;22.90;99.90;;;;;;5045168;28;20207;-81
2023/08/25 07:35:50;;;;;;;4.27;3.77;;;22.80;99.90;;;;;;5043236;28;20206;-80
2023/08/25 07:38:19;;;;;;;3.70;3.30;;;22.60;99.90;;;;;;5053147;28;20257;-80
2023/08/25 07:40:45;;;;;;;4.30;3.80;;;22.50;99.90;;;;;;5042772;28;20203;-83
2023/08/25 07:43:12;;;;;;;5.13;3.80;;;22.40;99.90;;;;;;5039891;28;20204;-81
2023/08/25 07:45:39;;;;;;;5.67;5.17;;;22.40;99.90;;;;;;5044072;28;20249;-83
2023/08/25 07:48:07;;;;;;;8.53;7.63;;;22.40;99.90;;;;;;5055398;28;20218;-84
2023/08/25 07:50:34;;;;;;;8.00;7.40;;;22.30;99.90;;;;;;5045802;28;20199;-84
2023/08/25 07:53:01;;;;;;;4.77;4.27;;;22.20;99.90;;;;;;5046905;28;20204;-81
2023/08/25 07:55:29;;;;;;;5.33;4.83;;;22.10;99.90;;;;;;5039911;28;20200;-83
2023/08/25 07:57:56;;;;;;;6.43;5.03;;;22.00;99.90;;;;;;5009039;28;1071736;-81
2023/08/25 08:00:23;;;;;;;4.63;4.00;;;21.90;99.90;;;;;;5036949;28;20214;-81
2023/08/25 08:02:50;;;;;;;8.43;7.63;;;21.80;99.90;;;;;;5042827;28;20192;-82
2023/08/25 08:05:18;;;;;;;10.27;9.47;;;21.70;99.90;;;;;;5046974;28;21651;-81
2023/08/25 08:07:45;;;;;;;9.97;9.17;;;21.70;99.90;;;;;;5048852;28;20733;-79
2023/08/25 08:10:13;;;;;;;7.03;4.40;;;21.60;99.90;;;;;;5046943;28;20689;-78
2023/08/25 08:12:42;;;;;;;9.10;4.70;;;21.60;99.90;;;;;;5066663;28;20210;-79
2023/08/25 08:15:10;;;;;;;8.40;7.70;;;21.40;99.90;;;;;;5056080;28;20219;-79
2023/08/25 08:17:37;;;;;;;5.50;4.90;;;21.30;99.90;;;;;;5047761;28;20198;-79
2023/08/25 08:20:05;;;;;;;9.67;8.80;;;21.20;99.90;;;;;;5047885;28;20198;-80
2023/08/25 08:22:32;;;;;;;10.10;9.30;;;21.20;99.90;;;;;;5052975;28;20865;-81
2023/08/25 08:25:11;;;;;;;10.80;10.10;;;21.10;99.90;;;;;;5045367;28;20199;-80
2023/08/25 08:27:39;;;;;;;11.73;10.73;;;21.00;99.90;;;;;;5052716;28;20199;-80
2023/08/25 08:30:08;;;;;;;9.40;8.60;;;21.00;99.90;;;;;;5053472;28;20195;-81
2023/08/25 08:32:36;;;;;;;10.00;9.20;;;20.80;99.90;;;;;;5045890;28;20204;-82
2023/08/25 08:35:06;;;;;;;10.50;9.70;;;20.70;99.90;;;;;;5052963;28;20893;-83
2023/08/25 08:37:33;;;;;;;8.53;7.83;;;20.70;99.90;;;;;;5053276;28;20227;-83
2023/08/25 08:40:00;;;;;;;9.23;8.53;;;20.80;99.90;;;;;;5051590;28;20714;-82
2023/08/25 08:42:29;;;;;;;9.90;9.00;;;20.80;99.90;;;;;;5051376;28;20221;-83
2023/08/25 08:45:00;;;;;;;7.20;6.70;;;20.80;99.90;;;;;;5037813;28;20203;-81
2023/08/25 08:47:28;;;;;;;11.20;10.40;;;20.90;99.90;;;;;;5056917;28;20295;-84
2023/08/25 08:49:58;;;;;;;9.67;8.97;;;20.90;99.90;;;;;;5041507;28;20199;-84
2023/08/25 08:52:25;;;;;;;11.40;10.50;;;21.00;99.90;;;;;;5041074;28;20204;-83
2023/08/25 08:54:52;;;;;;;12.30;11.40;;;21.10;99.90;;;;;;5039936;28;20706;-83
2023/08/25 08:57:19;;;;;;;8.57;6.67;;;21.20;99.90;;;;;;5039346;28;20196;-82
2023/08/25 08:59:47;;;;;;;5.50;4.47;;;21.30;99.90;;;;;;5038377;28;20224;-83
2023/08/25 09:02:15;;;;;;;9.10;8.40;;;21.50;99.90;;;;;;5066982;28;20238;-83
2023/08/25 09:04:44;;;;;;;6.63;4.87;;;21.60;99.90;;;;;;5039091;28;20211;-82
2023/08/25 09:07:12;;;;;;;5.37;4.67;;;21.80;99.90;;;;;;5037045;28;20211;-84
2023/08/25 09:09:40;;;;;;;4.83;4.33;;;21.80;99.90;;;;;;5060958;28;20254;-83
2023/08/25 09:12:07;;;;;;;6.70;4.70;;;21.90;99.90;;;;;;5046788;28;20557;-83
2023/08/25 09:14:34;;;;;;;8.30;7.70;;;22.10;99.90;;;;;;5037676;28;20223;-83
2023/08/25 09:17:02;;;;;;;8.80;8.10;;;22.20;99.90;;;;;;5046029;28;20234;-84
2023/08/25 09:19:30;;;;;;;8.47;7.87;;;22.30;99.90;;;;;;5043112;28;20228;-85
2023/08/25 09:21:59;;;;;;;10.30;9.40;;;22.40;99.90;;;;;;5037596;28;20774;-83
2023/08/25 09:24:26;;;;;;;9.50;8.63;;;22.60;99.90;;;;;;5046793;28;20257;-82
2023/08/25 09:26:54;;;;;;;9.00;8.20;;;22.70;99.90;;;;;;5040919;28;20207;-83
2023/08/25 09:29:22;;;;;;;8.20;7.50;;;22.90;99.90;;;;;;5039253;28;20269;-83
2023/08/25 09:31:49;;;;;;;5.20;4.13;;;23.00;99.90;;;;;;5051126;28;20245;-83
2023/08/25 09:34:16;;;;;;;9.13;8.53;;;23.10;99.90;;;;;;5053344;28;20203;-82
2023/08/25 09:36:54;;;;;;;8.60;7.93;;;23.20;99.90;;;;;;5044916;28;20281;-84
2023/08/25 09:39:23;;;;;;;3.60;3.30;;;23.20;99.90;;;;;;5039889;28;20218;-83
2023/08/25 09:41:50;;;;;;;4.57;4.17;;;23.40;99.90;;;;;;5045233;28;20191;-82
2023/08/25 09:44:18;;;;;;;4.03;3.40;;;23.40;99.90;;;;;;5037619;28;20666;-83
2023/08/25 09:46:45;;;;;;;4.17;3.77;;;23.50;99.90;;;;;;5044988;28;20192;-81
2023/08/25 09:49:13;;;;;;;5.80;5.30;;;23.60;99.90;;;;;;5049723;28;20649;-81
2023/08/25 09:51:41;;;;;;;4.67;4.33;;;23.60;99.90;;;;;;5045366;28;20183;-82
2023/08/25 09:54:09;;;;;;;6.60;6.10;;;23.70;99.90;;;;;;5043548;28;20689;-81
2023/08/25 09:56:39;;;;;;;3.73;3.40;;;24.00;99.90;;;;;;5037977;28;20249;-78
2023/08/25 09:59:07;;;;;;;7.07;6.40;;;24.30;99.90;;;;;;5047398;23;20696;-81
2023/08/25 10:01:35;;;;;;;7.53;6.93;;;24.60;99.90;;;;;;5033943;28;20207;-77
2023/08/25 10:04:03;;;;;;;6.63;6.07;;;24.80;99.90;;;;;;5034172;28;20246;-78
2023/08/25 10:06:31;;;;;;;6.47;5.80;;;25.00;99.90;;;;;;5034261;28;20203;-78
2023/08/25 10:08:58;;;;;;;4.33;3.97;;;25.30;99.90;;;;;;5015881;28;20301;-78
2023/08/25 10:11:28;;;;;;;5.57;4.10;;;25.50;99.90;;;;;;5029526;28;20199;-79
2023/08/25 10:13:57;;;;;;;5.70;5.30;;;25.70;99.90;;;;;;5027106;28;20275;-79
2023/08/25 10:16:26;;;;;;;7.60;7.00;;;26.00;99.90;;;;;;5020128;28;20199;-80
2023/08/25 10:18:56;;;;;;;6.33;5.73;;;26.40;99.90;;;;;;5017559;28;20220;-80
2023/08/25 10:21:24;;;;;;;7.50;6.90;;;26.70;99.90;;;;;;5026801;28;20203;-79
2023/08/25 10:23:54;;;;;;;9.00;8.40;;;26.90;99.90;;;;;;5016148;28;20200;-79
2023/08/25 10:26:21;;;;;;;8.47;7.90;;;27.00;99.90;;;;;;5025756;28;20203;-81
2023/08/25 10:28:49;;;;;;;5.60;5.17;;;27.00;99.90;;;;;;5032555;28;20749;-80
2023/08/25 10:31:18;;;;;;;5.83;5.43;;;27.10;99.90;;;;;;5014151;28;20274;-79
2023/08/25 10:33:48;;;;;;;5.17;4.80;;;27.20;99.90;;;;;;5014650;28;20204;-80
2023/08/25 10:36:19;;;;;;;6.50;6.10;;;27.20;99.90;;;;;;5014031;28;20204;-80
2023/08/25 10:39:07;;;;;;;7.10;6.60;;;27.30;99.90;;;;;;5014562;28;20318;-80
2023/08/25 10:41:41;;;;;;;6.93;6.33;;;27.30;99.90;;;;;;5032274;28;20200;-80
2023/08/25 10:44:11;;;;;;;7.47;6.90;;;27.50;99.90;;;;;;5014509;28;20305;-80
2023/08/25 10:46:39;;;;;;;5.60;5.10;;;27.60;99.90;;;;;;5032489;28;20199;-78
2023/08/25 10:49:11;;;;;;;5.60;5.20;;;27.60;99.90;;;;;;5024521;28;20756;-80
2023/08/25 10:51:38;;;;;;;11.07;10.27;;;27.50;99.90;;;;;;5021013;28;20583;-80
2023/08/25 10:54:05;;;;;;;10.77;9.93;;;27.60;99.90;;;;;;5021091;28;20254;-80
2023/08/25 10:56:33;;;;;;;6.17;5.77;;;27.70;99.90;;;;;;5031800;28;20209;-80
2023/08/25 10:59:05;;;;;;;8.50;7.90;;;27.90;99.90;;;;;;5031979;28;20219;-80
2023/08/25 11:01:56;;;;;;;4.63;4.33;;;27.90;99.90;;;;;;5034898;28;20204;-80
2023/08/25 11:04:24;;;;;;;5.07;4.67;;;28.10;99.90;;;;;;5026072;28;20227;-79
2023/08/25 11:06:52;;;;;;;3.80;3.50;;;28.20;99.90;;;;;;5013669;28;20249;-78
2023/08/25 11:09:33;;;;;;;6.47;6.00;;;28.10;99.90;;;;;;5032203;28;20690;-80
2023/08/25 11:12:03;;;;;;;5.67;5.27;;;28.10;99.90;;;;;;5014079;28;20238;-81
2023/08/25 11:14:30;;;;;;;6.80;6.30;;;28.20;99.90;;;;;;5002860;28;20659;-80
2023/08/25 11:16:58;;;;;;;6.63;6.03;;;28.30;99.90;;;;;;5033689;28;20207;-79
2023/08/25 11:19:26;;;;;;;5.67;5.27;;;28.30;99.90;;;;;;5011134;28;20232;-77
2023/08/25 11:21:58;;;;;;;7.73;7.13;;;28.20;99.90;;;;;;5031476;28;20197;-77
2023/08/25 11:24:25;;;;;;;4.30;4.00;;;28.20;99.90;;;;;;5031739;28;20693;-79
2023/08/25 11:26:51;;;;;;;4.10;3.60;;;28.10;99.90;;;;;;5017664;28;20203;-79
2023/08/25 11:29:18;;;;;;;4.10;3.63;;;28.00;99.90;;;;;;5035840;28;20228;-78
2023/08/25 11:31:45;;;;;;;4.90;4.40;;;27.90;99.90;;;;;;5036745;28;20571;-78
2023/08/25 11:34:14;;;;;;;5.60;5.10;;;27.90;99.90;;;;;;5033872;28;20204;-77
2023/08/25 11:36:42;;;;;;;3.27;2.97;;;27.80;99.90;;;;;;5016780;28;20238;-77
2023/08/25 11:39:17;;;;;;;5.07;4.67;;;27.90;99.90;;;;;;5019989;28;20218;-77
2023/08/25 11:41:44;;;;;;;7.00;6.50;;;27.90;99.90;;;;;;5017966;28;20199;-77
2023/08/25 11:44:11;;;;;;;6.90;6.40;;;27.70;99.90;;;;;;5032568;28;20208;-78
2023/08/25 11:46:38;;;;;;;7.07;6.57;;;27.70;99.90;;;;;;5033446;28;20207;-77
2023/08/25 11:49:06;;;;;;;4.83;3.87;;;27.60;99.90;;;;;;5015371;28;20265;-77
2023/08/25 11:51:36;;;;;;;5.93;3.80;;;27.50;99.90;;;;;;5016404;28;20203;-77
2023/08/25 11:54:04;;;;;;;6.67;5.70;;;27.40;99.90;;;;;;5016624;28;20220;-78
2023/08/25 11:56:31;;;;;;;7.00;6.40;;;27.30;99.90;;;;;;5034312;28;20196;-76
2023/08/25 11:58:58;;;;;;;7.00;6.40;;;27.30;99.90;;;;;;5015438;28;20232;-76
2023/08/25 12:01:31;;;;;;;6.60;6.10;;;27.40;99.90;;;;;;5033858;28;20552;-77
2023/08/25 12:03:59;;;;;;;7.10;6.50;;;27.50;99.90;;;;;;5032173;28;20275;-77
2023/08/25 12:06:26;;;;;;;6.00;5.50;;;27.70;99.90;;;;;;5014532;28;20694;-76
2023/08/25 12:08:54;;;;;;;6.57;5.90;;;27.80;99.90;;;;;;5033526;28;20277;-78
2023/08/25 12:11:21;;;;;;;7.57;6.97;;;27.90;99.90;;;;;;5015145;28;20231;-77
2023/08/25 12:13:48;;;;;;;7.43;6.83;;;27.90;99.90;;;;;;5033500;28;20548;-77
2023/08/25 12:16:18;;;;;;;5.93;5.40;;;27.90;99.90;;;;;;5021211;28;20590;-77
2023/08/25 12:18:51;;;;;;;5.40;4.90;;;28.00;99.90;;;;;;5020853;28;20273;-77
2023/08/25 12:21:19;;;;;;;5.60;5.10;;;27.90;99.90;;;;;;5039748;28;20195;-78
2023/08/25 12:23:46;;;;;;;7.10;6.47;;;27.90;99.90;;;;;;5021315;28;20227;-78
2023/08/25 12:26:14;;;;;;;7.50;6.80;;;27.80;99.90;;;;;;5014056;28;20212;-78
2023/08/25 12:28:42;;;;;;;6.43;5.83;;;27.70;99.90;;;;;;5033419;28;20247;-77
2023/08/25 12:31:09;;;;;;;3.70;3.40;;;27.60;99.90;;;;;;5031739;28;20216;-77
2023/08/25 12:33:36;;;;;;;4.60;3.80;;;27.60;99.90;;;;;;5016041;28;20208;-77
2023/08/25 12:36:03;;;;;;;5.10;3.63;;;27.50;99.90;;;;;;5034520;28;20203;-76
2023/08/25 12:38:32;;;;;;;5.90;5.40;;;27.40;99.90;;;;;;5019111;28;20294;-76
2023/08/25 12:40:59;;;;;;;8.30;6.50;;;27.30;99.90;;;;;;5036751;28;20216;-76
2023/08/25 12:43:28;;;;;;;7.03;6.33;;;27.30;99.90;;;;;;5037625;28;20207;-76
2023/08/25 12:45:56;;;;;;;7.50;7.00;;;27.20;99.90;;;;;;5036658;28;20196;-79
2023/08/25 12:48:23;;;;;;;7.50;6.90;;;27.20;99.90;;;;;;5037385;28;20230;-76
2023/08/25 12:50:49;;;;;;;6.50;6.00;;;27.10;99.90;;;;;;5034442;28;20208;-77